createdAt,value
2022-12-05T00:02:54.122Z,38.77
2022-12-05T00:05:52.045Z,34.20
2022-12-05T00:08:50.426Z,36.07
2022-12-05T00:11:48.512Z,37.10
2022-12-05T00:14:46.426Z,37.00
2022-12-05T00:17:44.336Z,40.93
2022-12-05T00:20:46.945Z,38.80
2022-12-05T00:23:44.851Z,40.72
2022-12-05T00:26:42.833Z,44.97
2022-12-05T00:29:40.773Z,45.23
2022-12-05T00:32:38.744Z,44.47
2022-12-05T00:35:36.751Z,47.50
2022-12-05T00:38:34.829Z,49.90
2022-12-05T00:41:32.511Z,45.83
2022-12-05T00:44:30.342Z,45.30
2022-12-05T00:47:28.298Z,45.77
2022-12-05T00:50:26.029Z,47.90
2022-12-05T00:53:23.746Z,47.33
2022-12-05T00:56:24.113Z,45.03
2022-12-05T00:59:21.888Z,48.57
2022-12-05T01:02:19.627Z,53.57
2022-12-05T01:05:17.540Z,47.97
2022-12-05T01:08:15.341Z,47.27
2022-12-05T01:11:16.672Z,52.57
2022-12-05T01:14:16.300Z,49.13
2022-12-05T01:17:13.938Z,50.17
2022-12-05T01:20:12.110Z,48.03
2022-12-05T01:23:10.555Z,50.30
2022-12-05T01:26:11.175Z,47.30
2022-12-05T01:29:09.304Z,47.07
2022-12-05T01:32:07.485Z,43.50
2022-12-05T01:35:05.789Z,39.67
2022-12-05T01:38:04.542Z,34.70
2022-12-05T01:41:04.392Z,38.03
2022-12-05T01:44:19.202Z,39.73
2022-12-05T01:47:19.304Z,37.27
2022-12-05T01:50:17.506Z,37.70
2022-12-05T01:53:16.727Z,36.43
2022-12-05T01:56:15.093Z,34.73
2022-12-05T01:59:14.031Z,36.10
2022-12-05T02:02:12.984Z,35.40
2022-12-05T02:05:18.258Z,35.43
2022-12-05T02:08:16.060Z,36.73
2022-12-05T02:11:14.043Z,37.73
2022-12-05T02:14:45.237Z,35.13
2022-12-05T02:18:10.715Z,33.87
2022-12-05T02:21:35.965Z,36.37
2022-12-05T02:24:59.064Z,39.53
2022-12-05T02:28:28.121Z,37.43
2022-12-05T02:31:38.716Z,40.90
2022-12-05T02:34:55.716Z,40.63
2022-12-05T02:38:04.680Z,40.80
2022-12-05T02:41:23.315Z,43.33
2022-12-05T02:44:31.181Z,40.80
2022-12-05T02:47:31.868Z,37.83
2022-12-05T02:50:34.668Z,36.93
2022-12-05T02:53:33.455Z,44.08
2022-12-05T02:56:35.156Z,40.37
2022-12-05T02:59:33.093Z,40.33
2022-12-05T03:02:35.358Z,42.40
2022-12-05T03:05:44.031Z,43.00
2022-12-05T03:09:02.231Z,42.77
2022-12-05T03:12:13.887Z,41.70
2022-12-05T03:15:18.057Z,44.20
2022-12-05T03:18:27.231Z,46.37
2022-12-05T03:21:37.674Z,44.13
2022-12-05T03:24:38.700Z,43.67
2022-12-05T03:27:50.676Z,44.10
2022-12-05T03:30:51.411Z,46.27
2022-12-05T03:33:52.154Z,46.03
2022-12-05T03:36:53.215Z,46.40
2022-12-05T03:40:01.654Z,50.47
2022-12-05T03:43:19.052Z,49.40
2022-12-05T03:46:29.710Z,45.90
2022-12-05T03:49:46.152Z,45.53
2022-12-05T03:53:18.150Z,49.57
2022-12-05T03:56:17.039Z,48.27
2022-12-05T03:59:23.200Z,45.57
2022-12-05T04:02:29.174Z,47.87
2022-12-05T04:05:45.565Z,51.23
2022-12-05T04:08:53.075Z,51.57
2022-12-05T04:11:58.203Z,52.50
2022-12-05T04:15:00.965Z,52.80
2022-12-05T04:18:00.815Z,53.47
2022-12-05T04:21:14.594Z,55.30
2022-12-05T04:24:34.130Z,64.40
2022-12-05T04:28:02.642Z,57.03
2022-12-05T04:31:09.577Z,62.43
2022-12-05T04:34:10.823Z,51.43
2022-12-05T04:37:15.721Z,60.87
2022-12-05T04:40:21.019Z,55.20
2022-12-05T04:43:21.013Z,58.92
2022-12-05T04:46:21.530Z,61.50
2022-12-05T04:49:24.411Z,55.17
2022-12-05T04:52:23.197Z,58.75
2022-12-05T04:55:26.435Z,58.03
2022-12-05T04:58:26.568Z,56.22
2022-12-05T05:01:34.795Z,59.00
2022-12-05T05:04:37.827Z,52.72
2022-12-05T05:07:45.052Z,55.28
2022-12-05T05:10:51.652Z,54.58
2022-12-05T05:13:49.826Z,60.20
2022-12-05T05:16:48.060Z,57.05
2022-12-05T05:19:46.028Z,55.97
2022-12-05T05:22:43.895Z,56.70
2022-12-05T05:25:41.501Z,57.00
2022-12-05T05:28:39.492Z,55.25
2022-12-05T05:31:37.978Z,55.85
2022-12-05T05:34:35.886Z,57.63
2022-12-05T05:37:33.623Z,54.45
2022-12-05T05:40:31.572Z,56.35
2022-12-05T05:43:29.289Z,52.33
2022-12-05T05:46:30.280Z,56.25
2022-12-05T05:49:27.965Z,56.47
2022-12-05T05:52:25.702Z,60.33
2022-12-05T05:55:23.378Z,56.83
2022-12-05T05:58:24.047Z,58.08
2022-12-05T06:01:22.038Z,53.13
2022-12-05T06:04:20.008Z,54.03
2022-12-05T06:07:17.844Z,55.75
2022-12-05T06:10:15.571Z,54.08
2022-12-05T06:13:13.303Z,56.10
2022-12-05T06:16:14.360Z,55.05
2022-12-05T06:19:12.061Z,54.53
2022-12-05T06:22:10.068Z,53.97
2022-12-05T06:25:09.106Z,52.97
2022-12-05T06:28:06.978Z,54.53
2022-12-05T06:31:11.074Z,52.70
2022-12-05T06:34:08.904Z,52.63
2022-12-05T06:37:06.727Z,58.60
2022-12-05T06:40:05.248Z,57.35
2022-12-05T06:43:02.850Z,55.92
2022-12-05T06:46:01.054Z,60.00
2022-12-05T06:48:59.619Z,63.72
2022-12-05T06:51:57.382Z,64.38
2022-12-05T06:54:55.473Z,63.75
2022-12-05T06:57:53.287Z,62.20
2022-12-05T07:01:06.423Z,62.35
2022-12-05T07:04:05.186Z,61.38
2022-12-05T07:07:03.063Z,60.97
2022-12-05T07:10:01.011Z,57.38
2022-12-05T07:12:58.948Z,58.92
2022-12-05T07:15:58.950Z,56.17
2022-12-05T07:18:57.783Z,57.25
2022-12-05T07:21:55.415Z,57.03
2022-12-05T07:24:53.814Z,53.33
2022-12-05T07:27:51.784Z,52.42
2022-12-05T07:30:49.530Z,52.17
2022-12-05T07:33:47.303Z,55.60
2022-12-05T07:36:45.009Z,54.17
2022-12-05T07:39:42.614Z,49.17
2022-12-05T07:42:40.396Z,49.75
2022-12-05T07:45:38.136Z,49.70
2022-12-05T07:48:35.957Z,49.65
2022-12-05T07:51:34.293Z,51.95
2022-12-05T07:54:32.123Z,50.60
2022-12-05T07:57:31.871Z,51.65
2022-12-05T08:00:29.746Z,52.10
2022-12-05T08:03:27.519Z,53.05
2022-12-05T08:06:29.405Z,55.25
2022-12-05T08:09:27.767Z,49.13
2022-12-05T08:12:25.637Z,53.03
2022-12-05T08:15:23.519Z,53.65
2022-12-05T08:18:27.096Z,53.30
2022-12-05T08:21:26.613Z,47.92
2022-12-05T08:24:25.688Z,50.80
2022-12-05T08:27:23.651Z,51.83
2022-12-05T08:30:21.469Z,53.20
2022-12-05T08:33:19.284Z,57.97
2022-12-05T08:36:18.159Z,53.38
2022-12-05T08:39:18.353Z,57.58
2022-12-05T08:42:16.074Z,53.03
2022-12-05T08:45:13.938Z,54.60
2022-12-05T08:48:11.638Z,56.83
2022-12-05T08:51:11.616Z,55.08
2022-12-05T08:54:09.634Z,53.05
2022-12-05T08:57:07.369Z,53.53
2022-12-05T09:00:07.116Z,53.90
2022-12-05T09:03:05.114Z,55.08
2022-12-05T09:06:20.047Z,53.10
2022-12-05T09:09:18.253Z,55.35
2022-12-05T09:12:16.242Z,56.00
2022-12-05T09:15:14.136Z,57.20
2022-12-05T09:18:13.278Z,58.55
2022-12-05T09:21:13.696Z,60.08
2022-12-05T09:24:13.333Z,55.20
2022-12-05T09:27:11.547Z,55.97
2022-12-05T09:30:10.195Z,60.55
2022-12-05T09:33:08.076Z,54.95
2022-12-05T09:36:08.678Z,55.15
2022-12-05T09:39:07.659Z,57.40
2022-12-05T09:42:30.013Z,57.13
2022-12-05T09:45:37.559Z,54.53
2022-12-05T09:48:35.919Z,53.13
2022-12-05T09:51:34.522Z,51.72
2022-12-05T09:54:33.142Z,54.25
2022-12-05T09:57:36.882Z,53.28
2022-12-05T10:00:35.017Z,59.17
2022-12-05T10:03:43.713Z,58.72
2022-12-05T10:06:54.936Z,54.03
2022-12-05T10:10:20.874Z,54.63
2022-12-05T10:13:34.480Z,53.20
2022-12-05T10:16:38.159Z,58.30
2022-12-05T10:19:42.837Z,55.78
2022-12-05T10:22:50.817Z,54.63
2022-12-05T10:25:52.865Z,52.83
2022-12-05T10:29:21.821Z,56.85
2022-12-05T10:32:24.611Z,52.58
2022-12-05T10:35:32.014Z,58.38
2022-12-05T10:38:31.966Z,54.75
2022-12-05T10:41:29.794Z,57.50
2022-12-05T10:44:27.784Z,57.53
2022-12-05T10:47:25.805Z,51.83
2022-12-05T10:50:30.118Z,60.53
2022-12-05T10:53:33.411Z,54.60
2022-12-05T10:56:48.984Z,55.08
2022-12-05T10:59:48.225Z,55.23
2022-12-05T11:02:49.354Z,58.67
2022-12-05T11:05:51.386Z,57.00
2022-12-05T11:09:06.611Z,55.38
2022-12-05T11:12:31.606Z,57.15
2022-12-05T11:15:31.632Z,54.90
2022-12-05T11:18:33.520Z,55.53
2022-12-05T11:21:43.595Z,57.17
2022-12-05T11:24:41.225Z,53.57
2022-12-05T11:27:38.965Z,57.80
2022-12-05T11:30:36.701Z,58.38
2022-12-05T11:33:36.777Z,58.57
2022-12-05T11:36:41.909Z,53.17
2022-12-05T11:39:40.045Z,55.40
2022-12-05T11:43:01.610Z,58.13
2022-12-05T11:46:27.008Z,56.42
2022-12-05T11:49:40.696Z,54.53
2022-12-05T11:52:57.014Z,55.23
2022-12-05T11:56:09.717Z,53.20
2022-12-05T11:59:43.187Z,54.08
2022-12-05T12:03:06.999Z,58.25
2022-12-05T12:06:24.346Z,52.75
2022-12-05T12:09:44.711Z,54.47
2022-12-05T12:13:11.973Z,52.50
2022-12-05T12:16:20.317Z,50.87
2022-12-05T12:19:43.143Z,56.23
2022-12-05T12:23:11.633Z,50.10
2022-12-05T12:26:31.238Z,47.85
2022-12-05T12:29:56.290Z,53.03
2022-12-05T12:33:14.389Z,60.30
2022-12-05T12:36:39.864Z,54.35
2022-12-05T12:39:59.443Z,49.88
2022-12-05T12:43:52.092Z,51.60
2022-12-05T12:50:09.533Z,43.97
2022-12-05T12:53:33.500Z,47.83
2022-12-05T12:56:40.096Z,48.53
2022-12-05T12:59:59.727Z,45.80
2022-12-05T13:03:08.497Z,46.90
2022-12-05T13:06:16.248Z,46.80
2022-12-05T13:09:29.805Z,48.53
2022-12-05T13:12:32.945Z,45.85
2022-12-05T13:15:45.193Z,45.00
2022-12-05T13:18:43.310Z,49.60
2022-12-05T13:21:41.248Z,48.28
2022-12-05T13:24:39.214Z,50.23
2022-12-05T13:27:37.965Z,47.33
2022-12-05T13:30:55.956Z,47.83
2022-12-05T13:33:54.163Z,47.17
2022-12-05T13:37:07.312Z,48.10
2022-12-05T13:40:21.586Z,48.38
2022-12-05T13:43:23.120Z,47.27
2022-12-05T13:46:34.012Z,51.70
2022-12-05T13:49:51.548Z,46.07
2022-12-05T13:52:55.893Z,45.55
2022-12-05T13:56:05.836Z,48.63
2022-12-05T13:59:04.458Z,50.67
2022-12-05T14:02:02.757Z,48.40
2022-12-05T14:05:00.612Z,46.90
2022-12-05T14:08:03.568Z,47.50
2022-12-05T14:14:11.792Z,45.17
2022-12-05T14:17:09.763Z,50.30
2022-12-05T14:20:30.835Z,51.00
2022-12-05T14:23:52.380Z,50.13
2022-12-05T14:27:08.976Z,50.30
2022-12-05T14:30:28.832Z,50.05
2022-12-05T14:33:27.034Z,50.90
2022-12-05T14:36:31.246Z,50.67
2022-12-05T14:39:44.562Z,51.00
2022-12-05T14:42:53.278Z,52.07
2022-12-05T14:46:02.203Z,54.17
2022-12-05T14:49:38.094Z,54.37
2022-12-05T14:52:42.673Z,50.53
2022-12-05T14:55:41.016Z,55.53
2022-12-05T14:58:46.425Z,53.20
2022-12-05T15:01:50.483Z,56.40
2022-12-05T15:04:55.701Z,50.38
2022-12-05T15:07:55.679Z,52.53
2022-12-05T15:10:59.029Z,52.33
2022-12-05T15:14:15.278Z,51.00
2022-12-05T15:17:19.217Z,49.50
2022-12-05T15:20:40.408Z,52.70
2022-12-05T15:23:45.255Z,52.93
2022-12-05T15:26:49.903Z,46.27
2022-12-05T15:29:48.414Z,45.37
2022-12-05T15:32:46.409Z,47.07
2022-12-05T15:35:51.418Z,46.63
2022-12-05T15:38:50.415Z,46.70
2022-12-05T15:41:48.243Z,46.47
2022-12-05T15:44:46.135Z,46.43
2022-12-05T15:47:46.125Z,56.40
2022-12-05T15:50:48.365Z,47.90
2022-12-05T15:53:52.851Z,38.77
2022-12-05T15:57:01.839Z,39.90
2022-12-05T16:00:06.977Z,40.57
2022-12-05T16:03:16.686Z,38.20
2022-12-05T16:06:20.875Z,37.80
2022-12-05T16:09:22.589Z,37.23
2022-12-05T16:12:26.812Z,37.17
2022-12-05T16:15:28.429Z,38.00
2022-12-05T16:18:31.461Z,34.27
2022-12-05T16:21:46.692Z,34.17
2022-12-05T16:24:50.232Z,35.17
2022-12-05T16:28:17.433Z,35.27
2022-12-05T16:31:19.294Z,30.43
2022-12-05T16:34:18.720Z,31.90
2022-12-05T16:37:27.390Z,33.70
2022-12-05T16:40:25.610Z,36.83
2022-12-05T16:43:45.025Z,34.70
2022-12-05T16:46:44.227Z,33.67
2022-12-05T16:49:46.274Z,34.42
2022-12-05T16:52:44.184Z,32.73
2022-12-05T16:55:44.490Z,39.23
2022-12-05T16:58:42.608Z,32.43
2022-12-05T17:01:40.427Z,33.00
2022-12-05T17:04:39.387Z,33.07
2022-12-05T17:07:37.465Z,32.38
2022-12-05T17:10:35.470Z,33.17
2022-12-05T17:13:33.857Z,35.20
2022-12-05T17:16:31.671Z,34.07
2022-12-05T17:19:30.280Z,32.50
2022-12-05T17:22:28.685Z,35.77
2022-12-05T17:25:38.532Z,34.77
2022-12-05T17:28:36.256Z,33.40
2022-12-05T17:31:34.077Z,34.27
2022-12-05T17:34:32.145Z,34.07
2022-12-05T17:37:30.991Z,32.87
2022-12-05T17:40:28.936Z,32.70
2022-12-05T17:43:26.661Z,32.07
2022-12-05T17:46:24.797Z,32.97
2022-12-05T17:49:23.301Z,35.30
2022-12-05T17:52:22.429Z,37.20
2022-12-05T17:55:24.034Z,35.33
2022-12-05T17:58:21.795Z,36.60
2022-12-05T18:01:21.223Z,35.13
2022-12-05T18:04:23.156Z,35.60
2022-12-05T18:07:21.982Z,34.93
2022-12-05T18:10:22.560Z,37.40
2022-12-05T18:13:20.292Z,35.83
2022-12-05T18:16:19.231Z,36.80
2022-12-05T18:19:16.932Z,36.17
2022-12-05T18:22:18.521Z,36.30
2022-12-05T18:28:17.976Z,30.93
2022-12-05T18:31:18.796Z,34.50
2022-12-05T18:34:17.268Z,38.23
2022-12-05T18:37:17.037Z,36.00
2022-12-05T18:40:15.569Z,38.37
2022-12-05T18:43:13.238Z,35.20
2022-12-05T18:46:14.126Z,38.23
2022-12-05T18:49:13.594Z,39.77
2022-12-05T18:52:11.387Z,35.00
2022-12-05T18:55:17.220Z,35.73
2022-12-05T18:58:15.755Z,34.43
2022-12-05T19:01:16.021Z,34.75
2022-12-05T19:04:17.680Z,33.90
2022-12-05T19:07:16.605Z,31.77
2022-12-05T19:10:14.372Z,32.27
2022-12-05T19:13:12.095Z,30.27
2022-12-05T19:16:14.488Z,31.33
2022-12-05T19:19:14.773Z,34.77
2022-12-05T19:22:12.433Z,32.07
2022-12-05T19:25:10.329Z,32.63
2022-12-05T19:28:08.052Z,32.63
2022-12-05T19:31:09.241Z,33.70
2022-12-05T19:34:08.913Z,33.07
2022-12-05T19:37:06.919Z,33.40
2022-12-05T19:40:04.998Z,33.30
2022-12-05T19:43:04.747Z,33.83
2022-12-05T19:46:05.875Z,31.70
2022-12-05T19:49:06.924Z,32.90
2022-12-05T19:52:05.151Z,32.33
2022-12-05T19:55:02.968Z,32.97
2022-12-05T19:58:00.939Z,32.43
2022-12-05T20:01:06.730Z,34.67
2022-12-05T20:04:10.020Z,34.37
2022-12-05T20:07:07.963Z,33.92
2022-12-05T20:10:06.397Z,35.03
2022-12-05T20:13:12.842Z,33.13
2022-12-05T20:16:23.732Z,33.90
2022-12-05T20:19:21.928Z,31.50
2022-12-05T20:22:19.632Z,31.13
2022-12-05T20:25:17.678Z,31.40
2022-12-05T20:28:16.294Z,31.20
2022-12-05T20:31:18.889Z,33.67
2022-12-05T20:34:17.038Z,33.10
2022-12-05T20:37:15.168Z,28.17
2022-12-05T20:40:13.255Z,29.80
2022-12-05T20:43:10.984Z,31.95
2022-12-05T20:46:12.550Z,30.83
2022-12-05T20:49:12.399Z,31.02
2022-12-05T20:52:10.109Z,31.35
2022-12-05T20:55:08.544Z,31.85
2022-12-05T20:58:06.258Z,33.45
2022-12-05T21:01:06.872Z,33.57
2022-12-05T21:04:06.825Z,30.57
2022-12-05T21:07:04.651Z,29.20
2022-12-05T21:10:07.940Z,30.43
2022-12-05T21:13:06.241Z,29.47
2022-12-05T21:16:06.637Z,30.17
2022-12-05T21:19:04.664Z,32.00
2022-12-05T21:22:02.925Z,30.83
2022-12-05T21:25:00.825Z,29.37
2022-12-05T21:27:59.023Z,33.07
2022-12-05T21:30:56.783Z,29.87
2022-12-05T21:33:57.814Z,31.73
2022-12-05T21:36:55.535Z,27.47
2022-12-05T21:39:53.367Z,31.30
2022-12-05T21:42:51.052Z,29.73
2022-12-05T21:45:53.965Z,30.13
2022-12-05T21:48:51.982Z,28.23
2022-12-05T21:51:49.834Z,29.63
2022-12-05T21:54:47.739Z,30.57
2022-12-05T21:57:45.730Z,30.10
2022-12-05T22:00:43.845Z,31.53
2022-12-05T22:03:41.566Z,32.27
2022-12-05T22:06:39.386Z,30.60
2022-12-05T22:09:37.415Z,30.97
2022-12-05T22:12:35.600Z,31.37
2022-12-05T22:15:33.472Z,33.00
2022-12-05T22:18:31.462Z,28.23
2022-12-05T22:21:29.772Z,31.90
2022-12-05T22:24:27.628Z,32.47
2022-12-05T22:27:25.455Z,29.93
2022-12-05T22:30:23.203Z,30.83
2022-12-05T22:33:21.174Z,31.27
2022-12-05T22:36:20.430Z,30.87
2022-12-05T22:39:18.430Z,29.00
2022-12-05T22:42:16.243Z,33.30
2022-12-05T22:45:14.466Z,31.40
2022-12-05T22:48:12.466Z,32.30
2022-12-05T22:51:11.028Z,29.67
2022-12-05T22:54:09.029Z,28.23
2022-12-05T22:57:06.916Z,30.37
2022-12-05T23:00:07.153Z,29.00
2022-12-05T23:03:05.693Z,28.40
2022-12-05T23:06:11.188Z,29.03
2022-12-05T23:09:11.606Z,27.33
2022-12-05T23:12:09.587Z,29.67
2022-12-05T23:15:07.971Z,29.20
2022-12-05T23:18:06.058Z,27.77
2022-12-05T23:21:04.875Z,27.63
2022-12-05T23:24:05.199Z,27.07
2022-12-05T23:27:03.028Z,27.93
2022-12-05T23:30:01.180Z,27.20
2022-12-05T23:32:59.073Z,27.40
2022-12-05T23:35:57.201Z,27.13
2022-12-05T23:38:55.071Z,27.23
2022-12-05T23:41:53.094Z,25.40
2022-12-05T23:44:51.664Z,28.93
2022-12-05T23:47:50.358Z,27.93
2022-12-05T23:51:04.953Z,28.43
2022-12-05T23:54:03.450Z,26.93
2022-12-05T23:57:01.223Z,27.70
2022-12-05T23:59:59.464Z,28.23
